Tropical Cyclones
[Index]
Main Index Home Page Stock Weather Photos Extreme Storms Discussion Storm News and Storm Chasing Reports Tropical Cyclones / Hurricanes / Typhoons Weather Data and Links Wild Fires / Bushfires Weather Observation Techniques Weather Picture Catalogue Tornado Pictures and Reports Stock Video Footage and DVDs for sale
Season 2008-2009 Tropical Cyclone GABRIELLE Track Map
Season 2008-2009 Summaries (Operational Data): [AU] [SIO] [SPAC] [SH]
<<- Previous TC | 2008-2009 Season | Next TC ->>

click for intensity scale information  Lat/long Grid: Show Hide

 Date Labels: Show Hide

Operational Tropical Cyclone Data : JTWC Advisories | BoM Warnings

Name: GABRIELLE
Number: 0917

01 Mar 2009 00:00 UTC to 05 Mar 2009 18:00 UTC

    date/time    lat    long     hPa   cat  kts
2009-03-01 00   11.0   101.2    1000         30          
2009-03-01 06   11.3   102.0    1000         30          
2009-03-01 12   11.7   103.4    1000         30          
2009-03-01 18   12.6   104.8    1000         30          
2009-03-02 00   13.5   105.6    1000         30          
2009-03-02 06   14.1   106.1     999         30          
2009-03-02 12   14.2   106.3     998    1    40          
2009-03-02 18   13.5   107.2     998    1    35          
2009-03-03 00   13.5   107.7     998    1    35          
2009-03-03 06   14.5   107.8     998    1    35          
2009-03-03 12   14.6   107.5     998    1    35          
2009-03-03 18   14.4   106.4     999    1    35          
2009-03-04 00   14.7   105.6    1001         30          
2009-03-04 06   16.0   104.9    1000         30          
2009-03-04 12   16.5   103.5    1000         30          
2009-03-04 18   17.0   102.1    1002         30          
2009-03-05 00   17.0   100.3    1002         30          
2009-03-05 06   18.5    98.9    1002         30          
2009-03-05 12   19.7    97.2    1004         25          
2009-03-05 18   21.0    95.9    1005         25          
Winds are 10-min average.

Tropical cyclone tracks developed by Michael Bath using operational warnings and advisories and Google Maps.


[Australian Severe Weather index] [Copyright Notice] [Email Contacts] [Search This Site] [Privacy Policy]
Document: tropical_cyclone_gabrielle.htm Updated: 28 May 2013